Bissau, Guinea-bissau
Current Conditions -  °F | °C
As of 4:00 PM on Friday 24 Oct 2014 (Local Time) from GGOV Reporting Station
Broken Clouds Broken Clouds  
Wind Chill: 88°   Ceiling: 1400
Heat Index: 102°   Visibility: 6mi
Dew Point: 79°   Wind: 7mph
Humidity: 75%   Direction: 240°WSW
Pressure: 29.8"   Gusts: NA
Location:  11.87°N, 15.6°W
Report Text: GGOV 241600Z 24006KT 9999 BKN014TCU 31/26 Q1009 BECMG SCT014
Loading
Personal Weather Stations






























Interactive Weather Map
Tropical Storm Tracking
New forecast layout! Learn more

10-Day Weather Forecast

Advertisements
Track Severe Weather on mobile